createdAt,value
2018-07-13T00:01:12.866Z,75.40
2018-07-13T00:03:43.134Z,75.70
2018-07-13T00:06:11.378Z,76.00
2018-07-13T00:08:40.144Z,76.80
2018-07-13T00:11:08.292Z,77.00
2018-07-13T00:14:24.322Z,77.50
2018-07-13T00:16:55.541Z,77.80
2018-07-13T00:19:24.738Z,78.10
2018-07-13T00:21:53.859Z,78.30
2018-07-13T00:24:22.180Z,78.70
2018-07-13T00:29:19.586Z,79.20
2018-07-13T00:31:47.683Z,79.00
2018-07-13T00:34:15.964Z,79.20
2018-07-13T00:36:44.871Z,79.40
2018-07-13T00:39:13.924Z,79.40
2018-07-13T00:41:42.032Z,79.30
2018-07-13T00:44:10.947Z,79.60
2018-07-13T00:51:36.829Z,80.20
2018-07-13T00:54:05.894Z,80.10
2018-07-13T01:01:31.051Z,80.60
2018-07-13T01:03:59.427Z,80.90
2018-07-13T01:06:27.596Z,81.20
2018-07-13T01:08:55.906Z,81.50
2018-07-13T01:11:25.303Z,81.80
2018-07-13T01:13:54.311Z,82.00
2018-07-13T01:16:23.205Z,82.10
2018-07-13T01:18:52.081Z,82.50
2018-07-13T01:21:20.511Z,82.30
2018-07-13T01:23:48.847Z,82.50
2018-07-13T01:26:16.968Z,82.50
2018-07-13T01:28:45.060Z,82.60
2018-07-13T01:31:13.343Z,82.70
2018-07-13T01:33:41.405Z,82.60
2018-07-13T01:36:09.633Z,82.60
2018-07-13T01:38:37.952Z,82.60
2018-07-13T01:41:06.240Z,82.50
2018-07-13T01:43:34.360Z,82.70
2018-07-13T01:46:02.493Z,82.60
2018-07-13T01:50:58.999Z,82.40
2018-07-13T01:53:27.208Z,82.60
2018-07-13T01:55:55.319Z,82.80
2018-07-13T01:58:23.471Z,83.00
2018-07-13T02:00:51.700Z,83.10
2018-07-13T02:03:19.809Z,83.20
2018-07-13T02:08:15.906Z,83.20
2018-07-13T02:10:44.188Z,83.30
2018-07-13T02:13:12.918Z,83.20
2018-07-13T02:15:41.189Z,83.10
2018-07-13T02:18:09.324Z,83.00
2018-07-13T02:20:38.349Z,83.00
2018-07-13T02:23:06.562Z,83.30
2018-07-13T02:25:34.796Z,83.40
2018-07-13T02:30:30.899Z,84.30
2018-07-13T02:32:58.976Z,84.40
2018-07-13T02:37:55.401Z,84.70
2018-07-13T02:40:23.711Z,84.80
2018-07-13T02:42:52.497Z,85.20
2018-07-13T02:45:20.791Z,85.50
2018-07-13T02:47:49.057Z,85.50
2018-07-13T02:50:17.188Z,85.80
2018-07-13T02:52:45.506Z,86.00
2018-07-13T02:55:13.929Z,86.00
2018-07-13T02:57:42.036Z,85.90
2018-07-13T03:00:10.451Z,86.00
2018-07-13T03:02:38.717Z,86.20
2018-07-13T03:05:07.081Z,86.10
2018-07-13T03:07:35.345Z,86.30
2018-07-13T03:10:03.823Z,86.40
2018-07-13T03:12:31.931Z,86.70
2018-07-13T03:15:01.031Z,87.00
2018-07-13T03:17:29.541Z,87.30
2018-07-13T03:22:25.959Z,87.60
2018-07-13T03:24:54.187Z,87.60
2018-07-13T03:27:22.474Z,87.60
2018-07-13T03:29:50.546Z,87.50
2018-07-13T03:32:19.223Z,87.60
2018-07-13T03:34:47.378Z,87.70
2018-07-13T03:37:15.712Z,87.80
2018-07-13T03:39:43.806Z,87.70
2018-07-13T03:42:12.143Z,87.40
2018-07-13T03:44:40.322Z,87.40
2018-07-13T03:47:08.614Z,87.60
2018-07-13T03:49:36.869Z,87.80
2018-07-13T03:52:05.606Z,88.00
2018-07-13T03:54:33.672Z,88.00
2018-07-13T03:57:01.906Z,88.00
2018-07-13T03:59:30.083Z,87.90
2018-07-13T04:01:58.214Z,87.90
2018-07-13T04:04:26.377Z,87.90
2018-07-13T04:06:54.702Z,88.30
2018-07-13T04:09:22.906Z,87.90
2018-07-13T04:11:51.087Z,87.90
2018-07-13T04:14:19.340Z,88.60
2018-07-13T04:16:47.525Z,87.80
2018-07-13T04:19:15.578Z,87.70
2018-07-13T04:21:43.839Z,87.50
2018-07-13T04:24:12.269Z,87.40
2018-07-13T04:26:43.035Z,87.30
2018-07-13T04:29:11.321Z,87.20
2018-07-13T04:36:36.037Z,86.70
2018-07-13T04:41:34.951Z,86.80
2018-07-13T04:46:31.644Z,85.50
2018-07-13T04:49:00.038Z,85.20
2018-07-13T04:51:28.537Z,84.80
2018-07-13T04:53:56.975Z,83.50
2018-07-13T04:56:25.417Z,83.30
2018-07-13T04:58:53.637Z,83.10
2018-07-13T05:01:21.820Z,82.60
2018-07-13T05:03:50.061Z,82.70
2018-07-13T05:08:46.439Z,80.40
2018-07-13T05:11:14.613Z,80.30
2018-07-13T05:13:42.799Z,79.60
2018-07-13T05:18:39.142Z,77.10
2018-07-13T05:21:08.065Z,76.00
2018-07-13T05:23:36.357Z,75.30
2018-07-13T05:26:04.895Z,73.50
2018-07-13T05:28:33.523Z,72.60
2018-07-13T05:31:01.853Z,71.10
2018-07-13T05:33:30.130Z,69.60
2018-07-13T05:35:58.508Z,68.70
2018-07-13T05:38:26.828Z,67.60
2018-07-13T05:40:55.305Z,66.50
2018-07-13T05:43:23.606Z,65.20
2018-07-13T05:45:51.794Z,63.60
2018-07-13T05:50:49.232Z,60.70
2018-07-13T05:53:17.730Z,59.60
2018-07-13T05:55:46.597Z,58.60
2018-07-13T05:58:15.219Z,57.70
2018-07-13T06:00:44.180Z,56.00
2018-07-13T06:03:14.007Z,56.00
2018-07-13T06:05:42.538Z,54.90
2018-07-13T06:08:10.976Z,54.60
2018-07-13T06:10:39.329Z,52.40
2018-07-13T06:13:08.305Z,51.60
2018-07-13T06:15:36.942Z,50.70
2018-07-13T06:18:05.766Z,50.30
2018-07-13T06:20:33.987Z,50.00
2018-07-13T06:23:03.012Z,48.30
2018-07-13T06:27:59.526Z,46.80
2018-07-13T06:30:27.896Z,45.70
2018-07-13T06:32:56.196Z,44.80
2018-07-13T06:35:25.268Z,45.60
2018-07-13T06:37:53.606Z,44.40
2018-07-13T06:40:21.822Z,43.50
2018-07-13T06:42:50.013Z,42.60
2018-07-13T06:45:18.307Z,41.70
2018-07-13T06:47:46.431Z,40.40
2018-07-13T06:50:14.799Z,40.00
2018-07-13T06:52:42.993Z,39.40
2018-07-13T06:55:11.212Z,39.60
2018-07-13T06:57:56.463Z,38.90
2018-07-13T07:01:01.713Z,39.50
2018-07-13T07:03:31.781Z,37.90
2018-07-13T07:06:04.652Z,37.00
2018-07-13T07:11:01.152Z,34.60
2018-07-13T07:13:39.740Z,34.80
2018-07-13T07:16:08.006Z,34.00
2018-07-13T07:21:04.642Z,32.50
2018-07-13T07:23:33.403Z,32.00
2018-07-13T07:26:02.307Z,33.60
2018-07-13T07:28:30.522Z,31.60
2018-07-13T07:30:59.768Z,30.70
2018-07-13T07:33:27.947Z,29.30
2018-07-13T07:35:56.049Z,28.90
2018-07-13T07:38:24.624Z,28.10
2018-07-13T07:40:52.921Z,27.20
2018-07-13T07:45:50.085Z,27.00
2018-07-13T07:50:46.301Z,25.90
2018-07-13T07:53:14.535Z,25.80
2018-07-13T07:55:42.884Z,25.80
2018-07-13T07:58:11.615Z,26.40
2018-07-13T08:00:39.949Z,25.30
2018-07-13T08:03:08.186Z,25.60
2018-07-13T08:05:36.475Z,26.10
2018-07-13T08:08:05.417Z,25.70
2018-07-13T08:10:33.647Z,25.70
2018-07-13T08:13:02.362Z,25.50
2018-07-13T08:17:58.882Z,26.40
2018-07-13T08:20:31.387Z,25.50
2018-07-13T08:23:04.716Z,25.10
2018-07-13T08:25:34.011Z,24.70
2018-07-13T08:28:03.305Z,23.90
2018-07-13T08:30:37.553Z,23.70
2018-07-13T08:33:05.709Z,22.70
2018-07-13T08:35:34.632Z,22.20
2018-07-13T08:38:03.223Z,21.50
2018-07-13T08:40:31.684Z,21.30
2018-07-13T08:43:00.723Z,21.20
2018-07-13T08:45:28.959Z,20.70
2018-07-13T08:47:57.390Z,21.10
2018-07-13T08:52:55.359Z,20.00
2018-07-13T08:55:23.731Z,19.90
2018-07-13T08:57:52.057Z,18.90
2018-07-13T09:00:21.027Z,18.90
2018-07-13T09:02:49.193Z,19.10
2018-07-13T09:07:45.971Z,19.60
2018-07-13T09:10:14.218Z,19.20
2018-07-13T09:12:42.664Z,19.00
2018-07-13T09:15:12.579Z,18.30
2018-07-13T09:17:40.893Z,18.50
2018-07-13T09:20:11.994Z,18.10
2018-07-13T09:22:41.273Z,17.40
2018-07-13T09:25:10.412Z,18.10
2018-07-13T09:27:39.403Z,17.80
2018-07-13T09:30:09.524Z,17.00
2018-07-13T09:32:37.942Z,16.90
2018-07-13T09:35:06.789Z,17.30
2018-07-13T09:37:35.245Z,17.20
2018-07-13T09:40:04.140Z,17.00
2018-07-13T09:42:32.419Z,16.50
2018-07-13T09:45:00.551Z,16.00
2018-07-13T09:49:56.928Z,16.60
2018-07-13T09:52:25.936Z,16.10
2018-07-13T09:54:55.297Z,16.50
2018-07-13T09:57:25.023Z,15.80
2018-07-13T09:59:53.106Z,16.00
2018-07-13T10:04:49.584Z,15.30
2018-07-13T10:07:17.727Z,14.80
2018-07-13T10:12:14.445Z,15.00
2018-07-13T10:14:42.702Z,14.80
2018-07-13T10:17:11.022Z,13.90
2018-07-13T10:19:39.430Z,14.30
2018-07-13T10:22:08.913Z,14.70
2018-07-13T10:27:05.659Z,14.90
2018-07-13T10:29:38.366Z,13.60
2018-07-13T10:32:06.656Z,13.90
2018-07-13T10:34:34.951Z,13.70
2018-07-13T10:37:04.327Z,13.40
2018-07-13T10:39:33.302Z,13.80
2018-07-13T10:44:29.764Z,13.80
2018-07-13T10:46:58.039Z,13.40
2018-07-13T10:49:26.218Z,13.40
2018-07-13T10:54:22.987Z,13.40
2018-07-13T10:56:51.344Z,12.70
2018-07-13T10:59:19.464Z,12.30
2018-07-13T11:01:47.698Z,12.80
2018-07-13T11:11:41.003Z,15.40
2018-07-13T11:14:09.459Z,18.20
2018-07-13T11:16:38.138Z,19.40
2018-07-13T11:19:06.448Z,19.40
2018-07-13T11:21:34.615Z,18.50
2018-07-13T11:24:02.795Z,16.40
2018-07-13T11:26:30.931Z,15.10
2018-07-13T11:28:59.177Z,14.70
2018-07-13T11:31:27.320Z,14.40
2018-07-13T11:33:57.431Z,13.00
2018-07-13T11:36:26.246Z,12.90
2018-07-13T11:38:55.149Z,13.40
2018-07-13T11:41:23.399Z,14.70
2018-07-13T11:46:19.824Z,16.50
2018-07-13T11:48:48.249Z,17.00
2018-07-13T11:56:13.129Z,16.80
2018-07-13T11:58:41.316Z,17.70
2018-07-13T12:01:09.465Z,18.40
2018-07-13T12:03:37.827Z,18.30
2018-07-13T12:06:06.008Z,17.40
2018-07-13T12:08:34.365Z,16.60
2018-07-13T12:11:02.481Z,16.30
2018-07-13T12:13:30.584Z,16.80
2018-07-13T12:15:58.724Z,17.50
2018-07-13T12:18:26.954Z,17.40
2018-07-13T12:20:55.164Z,17.30
2018-07-13T12:23:23.453Z,17.20
2018-07-13T12:25:51.875Z,17.20
2018-07-13T12:30:48.091Z,17.20
2018-07-13T12:33:16.374Z,16.00
2018-07-13T12:35:44.716Z,15.60
2018-07-13T12:38:13.193Z,16.10
2018-07-13T12:40:42.292Z,15.10
2018-07-13T12:43:10.723Z,14.50
2018-07-13T12:45:38.944Z,13.70
2018-07-13T12:48:07.782Z,13.40
2018-07-13T12:50:35.950Z,13.50
2018-07-13T12:53:04.157Z,13.20
2018-07-13T12:58:00.550Z,12.90
2018-07-13T13:00:28.843Z,13.20
2018-07-13T13:02:57.013Z,13.20
2018-07-13T13:05:25.475Z,14.90
2018-07-13T13:07:53.647Z,16.50
2018-07-13T13:10:21.958Z,16.20
2018-07-13T13:12:50.167Z,16.20
2018-07-13T13:17:46.309Z,16.00
2018-07-13T13:20:14.402Z,15.60
2018-07-13T13:22:42.632Z,16.10
2018-07-13T13:25:10.868Z,16.80
2018-07-13T13:27:39.110Z,16.10
2018-07-13T13:30:07.584Z,15.50
2018-07-13T13:32:35.899Z,15.50
2018-07-13T13:35:04.119Z,16.20
2018-07-13T13:37:33.067Z,17.30
2018-07-13T13:40:01.187Z,16.60
2018-07-13T13:42:29.315Z,18.30
2018-07-13T13:44:57.599Z,19.70
2018-07-13T13:47:25.809Z,20.20
2018-07-13T13:49:53.877Z,20.60
2018-07-13T13:52:22.460Z,21.30
2018-07-13T13:57:47.480Z,23.00
2018-07-13T14:00:15.623Z,23.50
2018-07-13T14:02:43.846Z,23.50
2018-07-13T14:05:12.127Z,23.70
2018-07-13T14:07:40.320Z,24.00
2018-07-13T14:12:36.726Z,23.70
2018-07-13T14:15:05.206Z,24.10
2018-07-13T14:17:33.625Z,24.70
2018-07-13T14:22:30.485Z,24.40
2018-07-13T14:27:26.816Z,25.20
2018-07-13T14:29:55.624Z,25.70
2018-07-13T14:32:23.812Z,25.70
2018-07-13T14:34:52.637Z,26.10
2018-07-13T14:37:20.776Z,26.10
2018-07-13T14:39:49.062Z,26.30
2018-07-13T14:42:17.369Z,26.20
2018-07-13T14:44:45.567Z,26.40
2018-07-13T14:47:13.968Z,26.50
2018-07-13T14:49:42.073Z,26.90
2018-07-13T14:52:10.382Z,26.70
2018-07-13T14:54:38.543Z,25.90
2018-07-13T14:57:06.739Z,25.90
2018-07-13T14:59:34.963Z,25.80
2018-07-13T15:02:03.070Z,25.70
2018-07-13T15:04:31.248Z,26.30
2018-07-13T15:06:59.430Z,25.80
2018-07-13T15:09:27.661Z,26.10
2018-07-13T15:11:55.894Z,26.40
2018-07-13T15:14:24.049Z,27.10
2018-07-13T15:16:52.209Z,27.50
2018-07-13T15:19:20.368Z,27.90
2018-07-13T15:21:48.463Z,28.00
2018-07-13T15:24:16.577Z,28.10
2018-07-13T15:26:45.292Z,28.00
2018-07-13T15:29:13.494Z,28.50
2018-07-13T15:31:41.672Z,29.30
2018-07-13T15:34:09.780Z,30.00
2018-07-13T15:39:06.892Z,30.40
2018-07-13T15:41:35.092Z,29.90
2018-07-13T15:44:03.326Z,30.60
2018-07-13T15:48:59.808Z,30.70
2018-07-13T15:51:28.313Z,30.90
2018-07-13T15:53:57.055Z,30.90
2018-07-13T15:56:25.227Z,31.50
2018-07-13T16:01:21.495Z,32.40
2018-07-13T16:03:49.734Z,33.20
2018-07-13T16:06:17.815Z,32.70
2018-07-13T16:11:14.087Z,32.30
2018-07-13T16:13:43.156Z,32.60
2018-07-13T16:18:39.499Z,31.10
2018-07-13T16:23:36.278Z,31.30
2018-07-13T16:26:04.481Z,30.80
2018-07-13T16:28:33.643Z,30.70
2018-07-13T16:33:29.970Z,30.60
2018-07-13T16:35:58.730Z,30.80
2018-07-13T16:38:26.899Z,31.00
2018-07-13T16:40:55.070Z,31.40
2018-07-13T16:43:23.330Z,31.40
2018-07-13T16:45:51.484Z,31.60
2018-07-13T16:50:47.623Z,31.70
2018-07-13T16:53:15.986Z,32.30
2018-07-13T16:55:44.132Z,31.40
2018-07-13T16:58:12.301Z,32.30
2018-07-13T17:00:40.560Z,32.50
2018-07-13T17:03:08.820Z,32.60
2018-07-13T17:05:36.985Z,32.80
2018-07-13T17:08:05.477Z,32.60
2018-07-13T17:10:33.947Z,33.00
2018-07-13T17:13:02.269Z,32.80
2018-07-13T17:15:30.462Z,33.10
2018-07-13T17:17:59.487Z,32.50
2018-07-13T17:20:27.647Z,32.80
2018-07-13T17:22:55.793Z,32.80
2018-07-13T17:25:24.153Z,33.00
2018-07-13T17:27:53.367Z,33.40
2018-07-13T17:30:21.729Z,33.60
2018-07-13T17:32:50.077Z,34.10
2018-07-13T17:35:18.467Z,34.60
2018-07-13T17:37:46.764Z,34.50
2018-07-13T17:40:15.048Z,34.80
2018-07-13T17:42:43.475Z,34.60
2018-07-13T17:45:11.657Z,34.80
2018-07-13T17:50:08.129Z,35.50
2018-07-13T17:52:36.262Z,36.00
2018-07-13T17:55:04.606Z,35.90
2018-07-13T17:57:32.895Z,35.80
2018-07-13T18:00:01.125Z,36.20
2018-07-13T18:02:29.355Z,36.40
2018-07-13T18:04:57.589Z,36.80
2018-07-13T18:07:26.008Z,37.20
2018-07-13T18:09:54.231Z,37.20
2018-07-13T18:14:50.716Z,37.50
2018-07-13T18:17:18.913Z,37.90
2018-07-13T18:19:47.038Z,38.50
2018-07-13T18:22:15.205Z,39.10
2018-07-13T18:27:11.799Z,39.90
2018-07-13T18:29:39.938Z,40.30
2018-07-13T18:32:08.212Z,40.70
2018-07-13T18:37:05.937Z,41.80
2018-07-13T18:39:34.186Z,42.20
2018-07-13T18:42:02.373Z,42.50
2018-07-13T18:44:30.655Z,42.80
2018-07-13T18:46:59.890Z,43.20
2018-07-13T18:49:28.163Z,43.80
2018-07-13T18:51:56.831Z,44.20
2018-07-13T18:54:25.028Z,44.80
2018-07-13T18:56:53.255Z,45.20
2018-07-13T18:59:21.442Z,45.60
2018-07-13T19:01:49.590Z,46.30
2018-07-13T19:04:17.684Z,46.80
2018-07-13T19:06:46.528Z,47.30
2018-07-13T19:09:14.759Z,47.80
2018-07-13T19:11:42.981Z,48.20
2018-07-13T19:14:11.225Z,48.40
2018-07-13T19:16:39.453Z,48.80
2018-07-13T19:21:35.705Z,49.50
2018-07-13T19:24:03.985Z,49.70
2018-07-13T19:26:32.204Z,50.00
2018-07-13T19:29:00.350Z,50.30
2018-07-13T19:31:28.556Z,50.60
2018-07-13T19:33:56.751Z,50.70
2018-07-13T19:36:24.941Z,51.00
2018-07-13T19:38:53.100Z,51.20
2018-07-13T19:41:21.320Z,51.60
2018-07-13T19:43:49.597Z,51.70
2018-07-13T19:46:17.783Z,52.10
2018-07-13T19:48:45.887Z,52.30
2018-07-13T19:51:14.049Z,52.60
2018-07-13T19:53:42.185Z,52.80
2018-07-13T19:56:10.381Z,53.40
2018-07-13T19:58:38.735Z,53.70
2018-07-13T20:01:06.950Z,54.10
2018-07-13T20:03:35.249Z,54.20
2018-07-13T20:06:03.438Z,54.90
2018-07-13T20:08:31.644Z,54.90
2018-07-13T20:10:59.885Z,55.70
2018-07-13T20:13:28.011Z,55.50
2018-07-13T20:15:56.231Z,55.80
2018-07-13T20:18:24.369Z,55.90
2018-07-13T20:20:52.763Z,56.20
2018-07-13T20:23:20.958Z,56.30
2018-07-13T20:25:49.129Z,56.60
2018-07-13T20:28:17.469Z,56.70
2018-07-13T20:30:45.685Z,57.00
2018-07-13T20:33:13.959Z,57.40
2018-07-13T20:35:45.666Z,57.70
2018-07-13T20:38:14.021Z,57.90
2018-07-13T20:40:42.878Z,58.00
2018-07-13T20:43:11.135Z,58.20
2018-07-13T20:45:39.532Z,58.50
2018-07-13T20:48:07.957Z,58.60
2018-07-13T20:53:04.345Z,59.10
2018-07-13T20:55:32.588Z,59.40
2018-07-13T20:58:00.843Z,59.60
2018-07-13T21:02:57.347Z,60.20
2018-07-13T21:05:25.477Z,60.60
2018-07-13T21:10:21.868Z,61.00
2018-07-13T21:12:50.048Z,61.30
2018-07-13T21:15:18.232Z,61.70
2018-07-13T21:17:46.470Z,61.80
2018-07-13T21:20:14.715Z,62.00
2018-07-13T21:22:43.228Z,62.10
2018-07-13T21:25:11.352Z,62.40
2018-07-13T21:27:39.511Z,62.60
2018-07-13T21:30:08.184Z,62.60
2018-07-13T21:32:36.319Z,63.00
2018-07-13T21:37:33.018Z,63.40
2018-07-13T21:40:01.177Z,63.50
2018-07-13T21:42:29.567Z,63.80
2018-07-13T21:44:57.731Z,64.00
2018-07-13T21:47:25.937Z,64.30
2018-07-13T21:49:54.125Z,64.30
2018-07-13T21:52:22.499Z,64.40
2018-07-13T21:54:50.885Z,64.70
2018-07-13T21:57:19.303Z,64.90
2018-07-13T21:59:47.584Z,64.90
2018-07-13T22:02:16.012Z,65.20
2018-07-13T22:04:50.918Z,65.50
2018-07-13T22:07:19.173Z,65.70
2018-07-13T22:09:47.333Z,65.70
2018-07-13T22:14:43.772Z,65.60
2018-07-13T22:17:12.730Z,65.50
2018-07-13T22:19:41.394Z,65.50
2018-07-13T22:22:09.672Z,65.60
2018-07-13T22:24:37.864Z,65.90
2018-07-13T22:27:06.156Z,66.00
2018-07-13T22:29:34.338Z,66.30
2018-07-13T22:32:03.450Z,66.70
2018-07-13T22:34:31.781Z,67.20
2018-07-13T22:37:00.858Z,67.60
2018-07-13T22:39:29.084Z,67.80
2018-07-13T22:41:57.422Z,68.00
2018-07-13T22:44:25.620Z,68.00
2018-07-13T22:46:53.881Z,68.10
2018-07-13T22:49:22.838Z,68.30
2018-07-13T22:51:51.495Z,68.40
2018-07-13T22:54:19.720Z,68.50
2018-07-13T22:56:47.990Z,68.60
2018-07-13T22:59:16.119Z,68.90
2018-07-13T23:01:44.277Z,69.20
2018-07-13T23:04:12.755Z,69.10
2018-07-13T23:06:41.001Z,69.10
2018-07-13T23:09:09.310Z,69.50
2018-07-13T23:11:37.437Z,69.60
2018-07-13T23:16:33.748Z,70.30
2018-07-13T23:19:02.069Z,70.70
2018-07-13T23:21:30.987Z,71.10
2018-07-13T23:23:59.257Z,71.20
2018-07-13T23:26:27.377Z,71.60
2018-07-13T23:28:55.577Z,71.90
2018-07-13T23:31:23.833Z,72.00
2018-07-13T23:33:52.152Z,72.10
2018-07-13T23:36:20.343Z,72.30
2018-07-13T23:38:48.687Z,72.50
2018-07-13T23:41:17.415Z,72.80
2018-07-13T23:43:45.770Z,73.00
2018-07-13T23:46:13.877Z,73.30
2018-07-13T23:48:42.095Z,73.50
2018-07-13T23:56:06.367Z,74.10
2018-07-13T23:58:34.560Z,74.20
